sensor_id;sensor_type;location;lat;lon;timestamp;temperature;humidity
38458;DHT22;24239;48.058;10.486;2023-10-31T00:01:53;9.20;99.90
38458;DHT22;24239;48.058;10.486;2023-10-31T00:04:39;9.20;99.90
38458;DHT22;24239;48.058;10.486;2023-10-31T00:07:27;9.20;99.90
38458;DHT22;24239;48.058;10.486;2023-10-31T00:10:16;9.20;99.90
38458;DHT22;24239;48.058;10.486;2023-10-31T00:13:04;9.10;99.90
38458;DHT22;24239;48.058;10.486;2023-10-31T00:15:52;9.20;99.90
38458;DHT22;24239;48.058;10.486;2023-10-31T00:18:41;9.20;99.90
38458;DHT22;24239;48.058;10.486;2023-10-31T00:21:27;9.10;99.90
38458;DHT22;24239;48.058;10.486;2023-10-31T00:24:13;9.20;99.90
38458;DHT22;24239;48.058;10.486;2023-10-31T00:26:59;9.20;99.90
38458;DHT22;24239;48.058;10.486;2023-10-31T00:29:44;9.20;99.90
38458;DHT22;24239;48.058;10.486;2023-10-31T00:32:30;9.10;99.90
38458;DHT22;24239;48.058;10.486;2023-10-31T00:35:16;9.10;99.90
38458;DHT22;24239;48.058;10.486;2023-10-31T00:38:03;9.10;99.90
38458;DHT22;24239;48.058;10.486;2023-10-31T00:40:49;9.10;99.90
38458;DHT22;24239;48.058;10.486;2023-10-31T00:43:35;9.10;99.90
38458;DHT22;24239;48.058;10.486;2023-10-31T00:46:22;9.00;99.90
38458;DHT22;24239;48.058;10.486;2023-10-31T00:49:09;9.10;99.90
38458;DHT22;24239;48.058;10.486;2023-10-31T00:51:55;9.10;99.90
38458;DHT22;24239;48.058;10.486;2023-10-31T00:54:41;9.00;99.90
38458;DHT22;24239;48.058;10.486;2023-10-31T00:57:27;9.10;99.90
38458;DHT22;24239;48.058;10.486;2023-10-31T01:00:13;9.10;99.90
38458;DHT22;24239;48.058;10.486;2023-10-31T01:02:59;9.20;99.90
38458;DHT22;24239;48.058;10.486;2023-10-31T01:05:45;9.00;99.90
38458;DHT22;24239;48.058;10.486;2023-10-31T01:08:31;9.10;99.90
38458;DHT22;24239;48.058;10.486;2023-10-31T01:11:17;9.00;99.90
38458;DHT22;24239;48.058;10.486;2023-10-31T01:14:03;9.20;99.90
38458;DHT22;24239;48.058;10.486;2023-10-31T01:16:49;9.10;99.90
38458;DHT22;24239;48.058;10.486;2023-10-31T01:19:35;9.10;99.90
38458;DHT22;24239;48.058;10.486;2023-10-31T01:22:23;9.10;99.90
38458;DHT22;24239;48.058;10.486;2023-10-31T01:25:11;9.10;99.90
38458;DHT22;24239;48.058;10.486;2023-10-31T01:27:57;9.10;99.90
38458;DHT22;24239;48.058;10.486;2023-10-31T01:30:45;9.10;99.90
38458;DHT22;24239;48.058;10.486;2023-10-31T01:33:30;9.10;99.90
38458;DHT22;24239;48.058;10.486;2023-10-31T01:36:16;9.10;99.90
38458;DHT22;24239;48.058;10.486;2023-10-31T01:39:05;9.10;99.90
38458;DHT22;24239;48.058;10.486;2023-10-31T01:41:51;9.10;99.90
38458;DHT22;24239;48.058;10.486;2023-10-31T01:44:39;9.10;99.90
38458;DHT22;24239;48.058;10.486;2023-10-31T01:47:25;9.10;99.90
38458;DHT22;24239;48.058;10.486;2023-10-31T01:50:10;9.20;99.90
38458;DHT22;24239;48.058;10.486;2023-10-31T01:52:56;9.10;99.90
38458;DHT22;24239;48.058;10.486;2023-10-31T01:55:43;9.10;99.90
38458;DHT22;24239;48.058;10.486;2023-10-31T01:58:32;9.00;99.90
38458;DHT22;24239;48.058;10.486;2023-10-31T02:01:18;9.10;99.90
38458;DHT22;24239;48.058;10.486;2023-10-31T02:04:04;9.00;99.90
38458;DHT22;24239;48.058;10.486;2023-10-31T02:06:52;9.10;99.90
38458;DHT22;24239;48.058;10.486;2023-10-31T02:09:37;9.10;99.90
38458;DHT22;24239;48.058;10.486;2023-10-31T02:12:36;9.20;99.90
38458;DHT22;24239;48.058;10.486;2023-10-31T02:15:23;9.10;99.90
38458;DHT22;24239;48.058;10.486;2023-10-31T02:18:09;9.10;99.90
38458;DHT22;24239;48.058;10.486;2023-10-31T02:20:58;9.00;99.90
38458;DHT22;24239;48.058;10.486;2023-10-31T02:23:54;9.10;99.90
38458;DHT22;24239;48.058;10.486;2023-10-31T02:26:40;9.00;99.90
38458;DHT22;24239;48.058;10.486;2023-10-31T02:29:26;9.00;99.90
38458;DHT22;24239;48.058;10.486;2023-10-31T02:32:12;9.00;99.90
38458;DHT22;24239;48.058;10.486;2023-10-31T02:34:58;9.00;99.90
38458;DHT22;24239;48.058;10.486;2023-10-31T02:37:45;9.00;99.90
38458;DHT22;24239;48.058;10.486;2023-10-31T02:40:31;9.00;99.90
38458;DHT22;24239;48.058;10.486;2023-10-31T02:43:17;9.00;99.90
38458;DHT22;24239;48.058;10.486;2023-10-31T02:46:04;9.00;99.90
38458;DHT22;24239;48.058;10.486;2023-10-31T02:48:50;9.00;99.90
38458;DHT22;24239;48.058;10.486;2023-10-31T02:51:37;9.00;99.90
38458;DHT22;24239;48.058;10.486;2023-10-31T02:54:22;9.00;99.90
38458;DHT22;24239;48.058;10.486;2023-10-31T02:57:08;9.00;99.90
38458;DHT22;24239;48.058;10.486;2023-10-31T02:59:54;9.00;99.90
38458;DHT22;24239;48.058;10.486;2023-10-31T03:02:40;8.90;99.90
38458;DHT22;24239;48.058;10.486;2023-10-31T03:05:26;9.00;99.90
38458;DHT22;24239;48.058;10.486;2023-10-31T03:08:12;9.00;99.90
38458;DHT22;24239;48.058;10.486;2023-10-31T03:10:58;9.00;99.90
38458;DHT22;24239;48.058;10.486;2023-10-31T03:13:45;8.90;99.90
38458;DHT22;24239;48.058;10.486;2023-10-31T03:16:34;9.00;99.90
38458;DHT22;24239;48.058;10.486;2023-10-31T03:19:22;9.00;99.90
38458;DHT22;24239;48.058;10.486;2023-10-31T03:22:09;9.00;99.90
38458;DHT22;24239;48.058;10.486;2023-10-31T03:24:55;9.00;99.90
38458;DHT22;24239;48.058;10.486;2023-10-31T03:27:41;9.00;99.90
38458;DHT22;24239;48.058;10.486;2023-10-31T03:30:27;9.00;99.90
38458;DHT22;24239;48.058;10.486;2023-10-31T03:33:13;9.00;99.90
38458;DHT22;24239;48.058;10.486;2023-10-31T03:35:58;9.00;99.90
38458;DHT22;24239;48.058;10.486;2023-10-31T03:38:44;8.90;99.90
38458;DHT22;24239;48.058;10.486;2023-10-31T03:41:30;9.00;99.90
38458;DHT22;24239;48.058;10.486;2023-10-31T03:44:16;8.90;99.90
38458;DHT22;24239;48.058;10.486;2023-10-31T03:47:02;9.00;99.90
38458;DHT22;24239;48.058;10.486;2023-10-31T03:49:48;8.90;99.90
38458;DHT22;24239;48.058;10.486;2023-10-31T03:52:33;8.90;99.90
38458;DHT22;24239;48.058;10.486;2023-10-31T03:55:19;8.80;99.90
38458;DHT22;24239;48.058;10.486;2023-10-31T03:58:05;8.90;99.90
38458;DHT22;24239;48.058;10.486;2023-10-31T04:00:51;8.80;99.90
38458;DHT22;24239;48.058;10.486;2023-10-31T04:03:37;8.80;99.90
38458;DHT22;24239;48.058;10.486;2023-10-31T04:06:24;8.80;99.90
38458;DHT22;24239;48.058;10.486;2023-10-31T04:09:12;8.80;99.90
38458;DHT22;24239;48.058;10.486;2023-10-31T04:12:01;8.90;99.90
38458;DHT22;24239;48.058;10.486;2023-10-31T04:14:48;8.90;99.90
38458;DHT22;24239;48.058;10.486;2023-10-31T04:17:34;8.80;99.90
38458;DHT22;24239;48.058;10.486;2023-10-31T04:20:22;8.80;99.90
38458;DHT22;24239;48.058;10.486;2023-10-31T04:23:08;8.80;99.90
38458;DHT22;24239;48.058;10.486;2023-10-31T04:25:57;8.90;99.90
38458;DHT22;24239;48.058;10.486;2023-10-31T04:28:44;8.90;99.90
38458;DHT22;24239;48.058;10.486;2023-10-31T04:31:31;8.90;99.90
38458;DHT22;24239;48.058;10.486;2023-10-31T04:34:17;8.90;99.90
38458;DHT22;24239;48.058;10.486;2023-10-31T04:37:03;8.80;99.90
38458;DHT22;24239;48.058;10.486;2023-10-31T04:39:50;8.80;99.90
38458;DHT22;24239;48.058;10.486;2023-10-31T04:42:38;8.80;99.90
38458;DHT22;24239;48.058;10.486;2023-10-31T04:45:27;8.80;99.90
38458;DHT22;24239;48.058;10.486;2023-10-31T04:48:13;8.80;99.90
38458;DHT22;24239;48.058;10.486;2023-10-31T04:50:59;8.80;99.90
38458;DHT22;24239;48.058;10.486;2023-10-31T04:53:45;8.80;99.90
38458;DHT22;24239;48.058;10.486;2023-10-31T04:56:31;8.80;99.90
38458;DHT22;24239;48.058;10.486;2023-10-31T04:59:17;8.80;99.90
38458;DHT22;24239;48.058;10.486;2023-10-31T05:02:03;8.80;99.90
38458;DHT22;24239;48.058;10.486;2023-10-31T05:04:49;8.80;99.90
38458;DHT22;24239;48.058;10.486;2023-10-31T05:07:37;8.80;99.90
38458;DHT22;24239;48.058;10.486;2023-10-31T05:10:25;8.80;99.90
38458;DHT22;24239;48.058;10.486;2023-10-31T05:13:11;8.70;99.90
38458;DHT22;24239;48.058;10.486;2023-10-31T05:15:58;8.80;99.90
38458;DHT22;24239;48.058;10.486;2023-10-31T05:18:44;8.80;99.90
38458;DHT22;24239;48.058;10.486;2023-10-31T05:21:30;8.90;99.90
38458;DHT22;24239;48.058;10.486;2023-10-31T05:24:16;8.90;99.90
38458;DHT22;24239;48.058;10.486;2023-10-31T05:27:03;8.80;99.90
38458;DHT22;24239;48.058;10.486;2023-10-31T05:29:49;8.80;99.90
38458;DHT22;24239;48.058;10.486;2023-10-31T05:32:38;8.80;99.90
38458;DHT22;24239;48.058;10.486;2023-10-31T05:35:24;8.90;99.90
38458;DHT22;24239;48.058;10.486;2023-10-31T05:38:10;8.90;99.90
38458;DHT22;24239;48.058;10.486;2023-10-31T05:40:56;8.90;99.90
38458;DHT22;24239;48.058;10.486;2023-10-31T05:43:42;8.90;99.90
38458;DHT22;24239;48.058;10.486;2023-10-31T05:46:28;8.80;99.90
38458;DHT22;24239;48.058;10.486;2023-10-31T05:49:14;8.80;99.90
38458;DHT22;24239;48.058;10.486;2023-10-31T05:52:01;8.80;99.90
38458;DHT22;24239;48.058;10.486;2023-10-31T05:54:47;8.80;99.90
38458;DHT22;24239;48.058;10.486;2023-10-31T05:57:33;8.80;99.90
38458;DHT22;24239;48.058;10.486;2023-10-31T06:00:19;8.70;99.90
38458;DHT22;24239;48.058;10.486;2023-10-31T06:03:04;8.70;99.90
38458;DHT22;24239;48.058;10.486;2023-10-31T06:05:53;8.80;99.90
38458;DHT22;24239;48.058;10.486;2023-10-31T06:08:41;8.70;99.90
38458;DHT22;24239;48.058;10.486;2023-10-31T06:11:27;8.70;99.90
38458;DHT22;24239;48.058;10.486;2023-10-31T06:14:13;8.80;99.90
38458;DHT22;24239;48.058;10.486;2023-10-31T06:16:58;8.70;99.90
38458;DHT22;24239;48.058;10.486;2023-10-31T06:19:48;8.70;99.90
38458;DHT22;24239;48.058;10.486;2023-10-31T06:22:35;8.80;99.90
38458;DHT22;24239;48.058;10.486;2023-10-31T06:25:22;8.60;99.90
38458;DHT22;24239;48.058;10.486;2023-10-31T06:28:10;8.70;99.90
38458;DHT22;24239;48.058;10.486;2023-10-31T06:30:58;8.70;99.90
38458;DHT22;24239;48.058;10.486;2023-10-31T06:33:44;8.50;99.90
38458;DHT22;24239;48.058;10.486;2023-10-31T06:36:33;8.60;99.90
38458;DHT22;24239;48.058;10.486;2023-10-31T06:39:20;8.50;99.90
38458;DHT22;24239;48.058;10.486;2023-10-31T06:42:08;8.50;99.90
38458;DHT22;24239;48.058;10.486;2023-10-31T06:44:53;8.60;99.90
38458;DHT22;24239;48.058;10.486;2023-10-31T06:47:41;8.60;99.90
38458;DHT22;24239;48.058;10.486;2023-10-31T06:50:27;8.50;99.90
38458;DHT22;24239;48.058;10.486;2023-10-31T06:53:14;8.50;99.90
38458;DHT22;24239;48.058;10.486;2023-10-31T06:56:00;8.50;99.90
38458;DHT22;24239;48.058;10.486;2023-10-31T06:58:45;8.50;99.90
38458;DHT22;24239;48.058;10.486;2023-10-31T07:01:31;8.50;99.90
38458;DHT22;24239;48.058;10.486;2023-10-31T07:04:17;8.50;99.90
38458;DHT22;24239;48.058;10.486;2023-10-31T07:07:03;8.40;99.90
38458;DHT22;24239;48.058;10.486;2023-10-31T07:09:50;8.40;99.90
38458;DHT22;24239;48.058;10.486;2023-10-31T07:12:36;8.50;99.90
38458;DHT22;24239;48.058;10.486;2023-10-31T07:15:23;8.50;99.90
38458;DHT22;24239;48.058;10.486;2023-10-31T07:18:09;8.50;99.90
38458;DHT22;24239;48.058;10.486;2023-10-31T07:20:55;8.50;99.90
38458;DHT22;24239;48.058;10.486;2023-10-31T07:23:40;8.50;99.90
38458;DHT22;24239;48.058;10.486;2023-10-31T07:26:26;8.60;99.90
38458;DHT22;24239;48.058;10.486;2023-10-31T07:29:12;8.60;99.90
38458;DHT22;24239;48.058;10.486;2023-10-31T07:31:58;8.60;99.90
38458;DHT22;24239;48.058;10.486;2023-10-31T07:34:44;8.50;99.90
38458;DHT22;24239;48.058;10.486;2023-10-31T07:37:30;8.60;99.90
38458;DHT22;24239;48.058;10.486;2023-10-31T07:40:16;8.60;99.90
38458;DHT22;24239;48.058;10.486;2023-10-31T07:43:01;8.60;99.90
38458;DHT22;24239;48.058;10.486;2023-10-31T07:45:47;8.70;99.90
38458;DHT22;24239;48.058;10.486;2023-10-31T07:48:33;8.70;99.90
38458;DHT22;24239;48.058;10.486;2023-10-31T07:51:19;8.80;99.90
38458;DHT22;24239;48.058;10.486;2023-10-31T07:54:05;8.80;99.90
38458;DHT22;24239;48.058;10.486;2023-10-31T07:56:51;8.90;99.90
38458;DHT22;24239;48.058;10.486;2023-10-31T07:59:37;8.90;99.90
38458;DHT22;24239;48.058;10.486;2023-10-31T08:02:22;8.90;99.90
38458;DHT22;24239;48.058;10.486;2023-10-31T08:05:09;9.00;99.90
38458;DHT22;24239;48.058;10.486;2023-10-31T08:07:57;9.00;99.90
38458;DHT22;24239;48.058;10.486;2023-10-31T08:10:45;9.10;99.90
38458;DHT22;24239;48.058;10.486;2023-10-31T08:13:34;9.10;99.90
38458;DHT22;24239;48.058;10.486;2023-10-31T08:16:21;9.10;99.90
38458;DHT22;24239;48.058;10.486;2023-10-31T08:19:10;9.10;99.90
38458;DHT22;24239;48.058;10.486;2023-10-31T08:21:56;9.10;99.90
38458;DHT22;24239;48.058;10.486;2023-10-31T08:24:43;9.20;99.90
38458;DHT22;24239;48.058;10.486;2023-10-31T08:27:30;9.30;99.90
38458;DHT22;24239;48.058;10.486;2023-10-31T08:30:16;9.30;99.90
38458;DHT22;24239;48.058;10.486;2023-10-31T08:33:03;9.50;99.90
38458;DHT22;24239;48.058;10.486;2023-10-31T08:35:49;9.50;99.90
38458;DHT22;24239;48.058;10.486;2023-10-31T08:38:37;9.50;99.90
38458;DHT22;24239;48.058;10.486;2023-10-31T08:41:26;9.50;99.90
38458;DHT22;24239;48.058;10.486;2023-10-31T08:44:14;9.60;99.90
38458;DHT22;24239;48.058;10.486;2023-10-31T08:47:03;9.50;99.90
38458;DHT22;24239;48.058;10.486;2023-10-31T08:49:50;9.60;99.90
38458;DHT22;24239;48.058;10.486;2023-10-31T08:52:39;9.80;99.90
38458;DHT22;24239;48.058;10.486;2023-10-31T08:55:25;9.80;99.90
38458;DHT22;24239;48.058;10.486;2023-10-31T08:58:13;9.60;99.90
38458;DHT22;24239;48.058;10.486;2023-10-31T09:00:59;9.80;99.90
38458;DHT22;24239;48.058;10.486;2023-10-31T09:03:46;9.90;99.90
38458;DHT22;24239;48.058;10.486;2023-10-31T09:06:32;10.00;99.90
38458;DHT22;24239;48.058;10.486;2023-10-31T09:09:20;10.10;99.90
38458;DHT22;24239;48.058;10.486;2023-10-31T09:12:06;10.10;99.90
38458;DHT22;24239;48.058;10.486;2023-10-31T09:14:54;10.10;99.90
38458;DHT22;24239;48.058;10.486;2023-10-31T09:17:42;10.10;99.90
38458;DHT22;24239;48.058;10.486;2023-10-31T09:20:28;10.00;99.90
38458;DHT22;24239;48.058;10.486;2023-10-31T09:23:16;10.00;99.90
38458;DHT22;24239;48.058;10.486;2023-10-31T09:26:05;10.00;99.90
38458;DHT22;24239;48.058;10.486;2023-10-31T09:28:50;10.00;99.90
38458;DHT22;24239;48.058;10.486;2023-10-31T09:31:38;10.10;99.90
38458;DHT22;24239;48.058;10.486;2023-10-31T09:34:23;10.10;99.90
38458;DHT22;24239;48.058;10.486;2023-10-31T09:37:09;10.10;99.90
38458;DHT22;24239;48.058;10.486;2023-10-31T09:39:55;10.30;99.90
38458;DHT22;24239;48.058;10.486;2023-10-31T09:42:41;10.30;99.90
38458;DHT22;24239;48.058;10.486;2023-10-31T09:45:28;10.30;99.90
38458;DHT22;24239;48.058;10.486;2023-10-31T09:48:17;10.40;99.90
38458;DHT22;24239;48.058;10.486;2023-10-31T09:51:05;10.40;99.90
38458;DHT22;24239;48.058;10.486;2023-10-31T09:53:54;10.50;99.90
38458;DHT22;24239;48.058;10.486;2023-10-31T09:56:41;10.60;99.90
38458;DHT22;24239;48.058;10.486;2023-10-31T09:59:29;10.70;99.90
38458;DHT22;24239;48.058;10.486;2023-10-31T10:02:17;10.70;99.90
38458;DHT22;24239;48.058;10.486;2023-10-31T10:05:04;10.80;99.90
38458;DHT22;24239;48.058;10.486;2023-10-31T10:07:50;11.00;99.90
38458;DHT22;24239;48.058;10.486;2023-10-31T10:10:37;11.00;99.90
38458;DHT22;24239;48.058;10.486;2023-10-31T10:13:23;11.00;99.90
38458;DHT22;24239;48.058;10.486;2023-10-31T10:16:09;11.20;99.90
38458;DHT22;24239;48.058;10.486;2023-10-31T10:18:56;11.20;99.90
38458;DHT22;24239;48.058;10.486;2023-10-31T10:21:52;11.20;99.90
38458;DHT22;24239;48.058;10.486;2023-10-31T10:24:41;11.40;99.90
38458;DHT22;24239;48.058;10.486;2023-10-31T10:27:28;11.50;99.90
38458;DHT22;24239;48.058;10.486;2023-10-31T10:30:17;11.60;99.90
38458;DHT22;24239;48.058;10.486;2023-10-31T10:33:05;11.60;99.90
38458;DHT22;24239;48.058;10.486;2023-10-31T10:35:54;11.70;99.90
38458;DHT22;24239;48.058;10.486;2023-10-31T10:38:42;11.50;99.90
38458;DHT22;24239;48.058;10.486;2023-10-31T10:41:30;11.50;99.90
38458;DHT22;24239;48.058;10.486;2023-10-31T10:44:19;11.60;99.90
38458;DHT22;24239;48.058;10.486;2023-10-31T10:47:12;11.60;99.90
38458;DHT22;24239;48.058;10.486;2023-10-31T10:50:01;11.60;99.90
38458;DHT22;24239;48.058;10.486;2023-10-31T10:52:49;11.60;99.90
38458;DHT22;24239;48.058;10.486;2023-10-31T10:55:38;11.60;99.90
38458;DHT22;24239;48.058;10.486;2023-10-31T10:58:27;11.50;99.90
38458;DHT22;24239;48.058;10.486;2023-10-31T11:01:16;11.60;99.90
38458;DHT22;24239;48.058;10.486;2023-10-31T11:04:03;11.60;99.90
38458;DHT22;24239;48.058;10.486;2023-10-31T11:06:50;11.60;99.90
38458;DHT22;24239;48.058;10.486;2023-10-31T11:09:36;11.50;99.90
38458;DHT22;24239;48.058;10.486;2023-10-31T11:12:23;11.30;99.90
38458;DHT22;24239;48.058;10.486;2023-10-31T11:15:11;11.40;99.90
38458;DHT22;24239;48.058;10.486;2023-10-31T11:18:00;11.40;99.90
38458;DHT22;24239;48.058;10.486;2023-10-31T11:20:50;11.30;99.90
38458;DHT22;24239;48.058;10.486;2023-10-31T11:23:38;11.20;99.90
38458;DHT22;24239;48.058;10.486;2023-10-31T11:26:31;11.00;99.90
38458;DHT22;24239;48.058;10.486;2023-10-31T11:29:23;10.70;99.90
38458;DHT22;24239;48.058;10.486;2023-10-31T11:32:11;10.60;99.90
38458;DHT22;24239;48.058;10.486;2023-10-31T11:35:00;10.60;99.90
38458;DHT22;24239;48.058;10.486;2023-10-31T11:37:48;10.70;99.90
38458;DHT22;24239;48.058;10.486;2023-10-31T11:40:36;10.80;99.90
38458;DHT22;24239;48.058;10.486;2023-10-31T11:43:22;11.00;99.90
38458;DHT22;24239;48.058;10.486;2023-10-31T11:46:18;11.10;99.90
38458;DHT22;24239;48.058;10.486;2023-10-31T11:49:04;11.30;99.90
38458;DHT22;24239;48.058;10.486;2023-10-31T11:51:51;11.30;99.90
38458;DHT22;24239;48.058;10.486;2023-10-31T11:54:37;11.40;99.90
38458;DHT22;24239;48.058;10.486;2023-10-31T11:57:26;11.40;99.90
38458;DHT22;24239;48.058;10.486;2023-10-31T12:00:20;11.30;99.90
38458;DHT22;24239;48.058;10.486;2023-10-31T12:03:06;11.40;99.90
38458;DHT22;24239;48.058;10.486;2023-10-31T12:05:57;11.40;99.90
38458;DHT22;24239;48.058;10.486;2023-10-31T12:08:45;11.20;99.90
38458;DHT22;24239;48.058;10.486;2023-10-31T12:11:37;11.10;99.90
38458;DHT22;24239;48.058;10.486;2023-10-31T12:14:29;11.00;99.90
38458;DHT22;24239;48.058;10.486;2023-10-31T12:17:15;10.90;99.90
38458;DHT22;24239;48.058;10.486;2023-10-31T12:20:07;10.90;99.90
38458;DHT22;24239;48.058;10.486;2023-10-31T12:23:03;10.90;99.90
38458;DHT22;24239;48.058;10.486;2023-10-31T12:25:50;10.90;99.90
38458;DHT22;24239;48.058;10.486;2023-10-31T12:28:36;10.80;99.90
38458;DHT22;24239;48.058;10.486;2023-10-31T12:31:23;10.80;99.90
38458;DHT22;24239;48.058;10.486;2023-10-31T12:34:09;10.90;99.90
38458;DHT22;24239;48.058;10.486;2023-10-31T12:36:57;11.00;99.90
38458;DHT22;24239;48.058;10.486;2023-10-31T12:39:48;11.20;99.90
38458;DHT22;24239;48.058;10.486;2023-10-31T12:42:37;11.20;99.90
38458;DHT22;24239;48.058;10.486;2023-10-31T12:45:23;11.40;99.90
38458;DHT22;24239;48.058;10.486;2023-10-31T12:48:10;11.20;99.90
38458;DHT22;24239;48.058;10.486;2023-10-31T12:51:15;11.30;99.90
38458;DHT22;24239;48.058;10.486;2023-10-31T12:54:02;11.30;99.90
38458;DHT22;24239;48.058;10.486;2023-10-31T12:56:49;11.40;99.90
38458;DHT22;24239;48.058;10.486;2023-10-31T12:59:36;11.30;99.90
38458;DHT22;24239;48.058;10.486;2023-10-31T13:02:23;11.40;99.90
38458;DHT22;24239;48.058;10.486;2023-10-31T13:05:10;11.50;99.90
38458;DHT22;24239;48.058;10.486;2023-10-31T13:07:57;11.50;99.90
38458;DHT22;24239;48.058;10.486;2023-10-31T13:10:45;11.40;99.90
38458;DHT22;24239;48.058;10.486;2023-10-31T13:13:31;11.40;99.90
38458;DHT22;24239;48.058;10.486;2023-10-31T13:16:17;11.50;99.90
38458;DHT22;24239;48.058;10.486;2023-10-31T13:19:03;11.40;99.90
38458;DHT22;24239;48.058;10.486;2023-10-31T13:21:49;11.40;99.90
38458;DHT22;24239;48.058;10.486;2023-10-31T13:24:35;11.30;99.90
38458;DHT22;24239;48.058;10.486;2023-10-31T13:27:21;11.40;99.90
38458;DHT22;24239;48.058;10.486;2023-10-31T13:30:09;11.30;99.90
38458;DHT22;24239;48.058;10.486;2023-10-31T13:32:56;11.20;99.90
38458;DHT22;24239;48.058;10.486;2023-10-31T13:35:43;11.30;99.90
38458;DHT22;24239;48.058;10.486;2023-10-31T13:38:29;11.30;99.90
38458;DHT22;24239;48.058;10.486;2023-10-31T13:41:15;11.20;99.90
38458;DHT22;24239;48.058;10.486;2023-10-31T13:44:01;11.30;99.90
38458;DHT22;24239;48.058;10.486;2023-10-31T13:46:49;11.20;99.90
38458;DHT22;24239;48.058;10.486;2023-10-31T13:49:37;11.40;99.90
38458;DHT22;24239;48.058;10.486;2023-10-31T13:52:23;11.40;99.90
38458;DHT22;24239;48.058;10.486;2023-10-31T13:55:09;11.40;99.90
38458;DHT22;24239;48.058;10.486;2023-10-31T13:57:55;11.50;99.90
38458;DHT22;24239;48.058;10.486;2023-10-31T14:00:42;11.50;99.90
38458;DHT22;24239;48.058;10.486;2023-10-31T14:03:29;11.40;99.90
38458;DHT22;24239;48.058;10.486;2023-10-31T14:06:15;11.30;99.90
38458;DHT22;24239;48.058;10.486;2023-10-31T14:09:01;11.20;99.90
38458;DHT22;24239;48.058;10.486;2023-10-31T14:11:50;11.10;99.90
38458;DHT22;24239;48.058;10.486;2023-10-31T14:14:36;11.00;99.90
38458;DHT22;24239;48.058;10.486;2023-10-31T14:17:22;11.00;99.90
38458;DHT22;24239;48.058;10.486;2023-10-31T14:20:08;11.00;99.90
38458;DHT22;24239;48.058;10.486;2023-10-31T14:22:54;10.90;99.90
38458;DHT22;24239;48.058;10.486;2023-10-31T14:25:40;11.10;99.90
38458;DHT22;24239;48.058;10.486;2023-10-31T14:28:26;11.10;99.90
38458;DHT22;24239;48.058;10.486;2023-10-31T14:31:12;11.30;99.90
38458;DHT22;24239;48.058;10.486;2023-10-31T14:33:58;11.50;99.90
38458;DHT22;24239;48.058;10.486;2023-10-31T14:36:44;11.50;99.90
38458;DHT22;24239;48.058;10.486;2023-10-31T14:39:30;11.50;99.90
38458;DHT22;24239;48.058;10.486;2023-10-31T14:42:16;11.60;99.90
38458;DHT22;24239;48.058;10.486;2023-10-31T14:45:02;11.50;99.90
38458;DHT22;24239;48.058;10.486;2023-10-31T14:47:48;11.40;99.90
38458;DHT22;24239;48.058;10.486;2023-10-31T14:50:34;11.30;99.90
38458;DHT22;24239;48.058;10.486;2023-10-31T14:53:20;11.20;99.90
38458;DHT22;24239;48.058;10.486;2023-10-31T14:56:06;10.90;99.90
38458;DHT22;24239;48.058;10.486;2023-10-31T14:58:55;10.90;99.90
38458;DHT22;24239;48.058;10.486;2023-10-31T15:01:41;10.70;99.90
38458;DHT22;24239;48.058;10.486;2023-10-31T15:04:27;10.60;99.90
38458;DHT22;24239;48.058;10.486;2023-10-31T15:07:13;10.50;99.90
38458;DHT22;24239;48.058;10.486;2023-10-31T15:09:59;10.40;99.90
38458;DHT22;24239;48.058;10.486;2023-10-31T15:12:46;10.40;99.90
38458;DHT22;24239;48.058;10.486;2023-10-31T15:15:31;10.30;99.90
38458;DHT22;24239;48.058;10.486;2023-10-31T15:18:20;10.40;99.90
38458;DHT22;24239;48.058;10.486;2023-10-31T15:21:07;10.30;99.90
38458;DHT22;24239;48.058;10.486;2023-10-31T15:23:53;10.30;99.90
38458;DHT22;24239;48.058;10.486;2023-10-31T15:26:39;10.20;99.90
38458;DHT22;24239;48.058;10.486;2023-10-31T15:29:25;10.10;99.90
38458;DHT22;24239;48.058;10.486;2023-10-31T15:32:11;10.10;99.90
38458;DHT22;24239;48.058;10.486;2023-10-31T15:34:57;10.10;99.90
38458;DHT22;24239;48.058;10.486;2023-10-31T15:37:44;10.10;99.90
38458;DHT22;24239;48.058;10.486;2023-10-31T15:40:30;10.10;99.90
38458;DHT22;24239;48.058;10.486;2023-10-31T15:43:16;10.20;99.90
38458;DHT22;24239;48.058;10.486;2023-10-31T15:46:02;10.20;99.90
38458;DHT22;24239;48.058;10.486;2023-10-31T15:48:48;10.10;99.90
38458;DHT22;24239;48.058;10.486;2023-10-31T15:51:34;10.10;99.90
38458;DHT22;24239;48.058;10.486;2023-10-31T15:54:22;10.20;99.90
38458;DHT22;24239;48.058;10.486;2023-10-31T15:57:09;10.20;99.90
38458;DHT22;24239;48.058;10.486;2023-10-31T15:59:55;10.10;99.90
38458;DHT22;24239;48.058;10.486;2023-10-31T16:02:41;10.10;99.90
38458;DHT22;24239;48.058;10.486;2023-10-31T16:05:27;10.00;99.90
38458;DHT22;24239;48.058;10.486;2023-10-31T16:08:13;10.00;99.90
38458;DHT22;24239;48.058;10.486;2023-10-31T16:10:59;10.00;99.90
38458;DHT22;24239;48.058;10.486;2023-10-31T16:13:45;10.00;99.90
38458;DHT22;24239;48.058;10.486;2023-10-31T16:16:31;9.90;99.90
38458;DHT22;24239;48.058;10.486;2023-10-31T16:19:16;10.00;99.90
38458;DHT22;24239;48.058;10.486;2023-10-31T16:22:02;9.80;99.90
38458;DHT22;24239;48.058;10.486;2023-10-31T16:24:48;9.70;99.90
38458;DHT22;24239;48.058;10.486;2023-10-31T16:27:37;9.70;99.90
38458;DHT22;24239;48.058;10.486;2023-10-31T16:30:22;9.70;99.90
38458;DHT22;24239;48.058;10.486;2023-10-31T16:33:08;9.60;99.90
38458;DHT22;24239;48.058;10.486;2023-10-31T16:35:54;9.60;99.90
38458;DHT22;24239;48.058;10.486;2023-10-31T16:38:40;9.50;99.90
38458;DHT22;24239;48.058;10.486;2023-10-31T16:41:26;9.60;99.90
38458;DHT22;24239;48.058;10.486;2023-10-31T16:44:12;9.50;99.90
38458;DHT22;24239;48.058;10.486;2023-10-31T16:46:59;9.50;99.90
38458;DHT22;24239;48.058;10.486;2023-10-31T16:49:45;9.50;99.90
38458;DHT22;24239;48.058;10.486;2023-10-31T16:52:31;9.40;99.90
38458;DHT22;24239;48.058;10.486;2023-10-31T16:55:17;9.50;99.90
38458;DHT22;24239;48.058;10.486;2023-10-31T16:58:03;9.40;99.90
38458;DHT22;24239;48.058;10.486;2023-10-31T17:00:54;9.40;99.90
38458;DHT22;24239;48.058;10.486;2023-10-31T17:03:40;9.40;99.90
38458;DHT22;24239;48.058;10.486;2023-10-31T17:06:26;9.40;99.90
38458;DHT22;24239;48.058;10.486;2023-10-31T17:09:17;9.40;99.90
38458;DHT22;24239;48.058;10.486;2023-10-31T17:12:03;9.40;99.90
38458;DHT22;24239;48.058;10.486;2023-10-31T17:14:48;9.40;99.90
38458;DHT22;24239;48.058;10.486;2023-10-31T17:17:34;9.40;99.90
38458;DHT22;24239;48.058;10.486;2023-10-31T17:20:20;9.30;99.90
38458;DHT22;24239;48.058;10.486;2023-10-31T17:23:06;9.40;99.90
38458;DHT22;24239;48.058;10.486;2023-10-31T17:25:52;9.30;99.90
38458;DHT22;24239;48.058;10.486;2023-10-31T17:28:39;9.40;99.90